createdAt,value
2018-09-24T00:00:53.686Z,63.50
2018-09-24T00:03:22.170Z,63.10
2018-09-24T00:05:50.561Z,62.70
2018-09-24T00:08:19.010Z,63.10
2018-09-24T00:10:47.495Z,62.30
2018-09-24T00:13:15.949Z,62.50
2018-09-24T00:15:44.487Z,62.20
2018-09-24T00:18:12.854Z,62.50
2018-09-24T00:20:41.428Z,62.90
2018-09-24T00:23:09.994Z,62.70
2018-09-24T00:25:38.491Z,62.70
2018-09-24T00:28:06.919Z,62.10
2018-09-24T00:30:35.367Z,61.60
2018-09-24T00:33:03.710Z,61.60
2018-09-24T00:35:32.217Z,61.50
2018-09-24T00:38:00.559Z,61.80
2018-09-24T00:40:28.958Z,62.40
2018-09-24T00:42:57.425Z,62.80
2018-09-24T00:45:25.788Z,63.70
2018-09-24T00:47:54.248Z,64.30
2018-09-24T00:50:22.642Z,66.00
2018-09-24T00:52:51.193Z,66.10
2018-09-24T00:55:19.824Z,66.20
2018-09-24T00:57:48.307Z,67.30
2018-09-24T01:00:16.762Z,66.80
2018-09-24T01:02:45.294Z,67.40
2018-09-24T01:05:13.683Z,67.40
2018-09-24T01:07:42.143Z,67.30
2018-09-24T01:10:10.610Z,66.20
2018-09-24T01:12:39.209Z,66.20
2018-09-24T01:15:08.711Z,66.20
2018-09-24T01:17:37.449Z,66.20
2018-09-24T01:20:06.445Z,66.40
2018-09-24T01:22:34.942Z,66.10
2018-09-24T01:25:03.306Z,66.00
2018-09-24T01:27:31.794Z,66.30
2018-09-24T01:30:00.170Z,66.10
2018-09-24T01:32:28.504Z,66.00
2018-09-24T01:34:56.926Z,66.00
2018-09-24T01:37:25.278Z,65.80
2018-09-24T01:39:53.714Z,65.90
2018-09-24T01:42:22.162Z,66.10
2018-09-24T01:44:50.554Z,65.60
2018-09-24T01:47:18.909Z,65.40
2018-09-24T01:49:47.244Z,65.60
2018-09-24T01:52:15.689Z,65.10
2018-09-24T01:54:44.226Z,65.20
2018-09-24T01:57:14.354Z,65.60
2018-09-24T01:59:47.819Z,65.80
2018-09-24T02:02:16.584Z,65.50
2018-09-24T02:04:45.102Z,65.60
2018-09-24T02:07:13.654Z,65.00
2018-09-24T02:09:42.082Z,65.10
2018-09-24T02:12:10.594Z,64.90
2018-09-24T02:14:39.095Z,65.00
2018-09-24T02:17:18.154Z,65.70
2018-09-24T02:19:47.722Z,66.50
2018-09-24T02:22:31.265Z,65.80
2018-09-24T02:25:00.350Z,65.50
2018-09-24T02:27:28.758Z,65.50
2018-09-24T02:29:57.182Z,65.90
2018-09-24T02:32:25.656Z,65.60
2018-09-24T02:34:56.275Z,65.90
2018-09-24T02:37:24.711Z,66.00
2018-09-24T02:39:53.053Z,66.00
2018-09-24T02:42:21.431Z,66.30
2018-09-24T02:44:55.665Z,66.20
2018-09-24T02:47:24.647Z,65.90
2018-09-24T02:49:52.981Z,66.00
2018-09-24T02:52:21.443Z,66.10
2018-09-24T02:54:49.885Z,65.90
2018-09-24T02:57:18.289Z,66.00
2018-09-24T02:59:47.408Z,65.90
2018-09-24T03:02:15.871Z,65.90
2018-09-24T03:04:44.275Z,65.80
2018-09-24T03:07:12.682Z,65.80
2018-09-24T03:09:41.101Z,66.00
2018-09-24T03:12:09.474Z,65.70
2018-09-24T03:14:37.927Z,66.00
2018-09-24T03:17:06.470Z,66.00
2018-09-24T03:19:34.844Z,66.10
2018-09-24T03:22:04.053Z,65.80
2018-09-24T03:24:34.477Z,66.00
2018-09-24T03:27:04.066Z,65.90
2018-09-24T03:29:32.441Z,66.60
2018-09-24T03:32:00.791Z,66.10
2018-09-24T03:34:29.140Z,66.00
2018-09-24T03:36:57.616Z,65.60
2018-09-24T03:39:26.078Z,65.60
2018-09-24T03:41:54.537Z,65.80
2018-09-24T03:44:22.886Z,66.70
2018-09-24T03:46:51.362Z,66.10
2018-09-24T03:49:19.864Z,66.10
2018-09-24T03:51:48.283Z,66.20
2018-09-24T03:54:16.692Z,66.10
2018-09-24T03:56:45.015Z,65.70
2018-09-24T03:59:13.382Z,65.80
2018-09-24T04:01:41.841Z,66.10
2018-09-24T04:04:15.634Z,66.20
2018-09-24T04:06:49.486Z,65.90
2018-09-24T04:09:23.261Z,65.90
2018-09-24T04:11:56.959Z,66.10
2018-09-24T04:14:30.636Z,66.50
2018-09-24T04:17:04.387Z,67.20
2018-09-24T04:19:38.365Z,66.80
2018-09-24T04:22:12.158Z,67.30
2018-09-24T04:24:45.882Z,67.80
2018-09-24T04:27:19.608Z,67.90
2018-09-24T04:29:53.380Z,67.90
2018-09-24T04:32:27.019Z,67.60
2018-09-24T04:35:00.726Z,67.60
2018-09-24T04:37:34.531Z,67.60
2018-09-24T04:40:08.231Z,67.60
2018-09-24T04:42:42.125Z,67.50
2018-09-24T04:45:15.824Z,67.40
2018-09-24T04:47:49.535Z,67.30
2018-09-24T04:50:23.330Z,66.90
2018-09-24T04:52:57.114Z,67.50
2018-09-24T04:55:30.914Z,67.20
2018-09-24T04:58:04.672Z,67.10
2018-09-24T05:00:38.439Z,67.00
2018-09-24T05:03:12.232Z,67.40
2018-09-24T05:05:46.050Z,67.50
2018-09-24T05:08:19.670Z,67.50
2018-09-24T05:10:53.374Z,67.50
2018-09-24T05:13:27.141Z,67.70
2018-09-24T05:16:01.047Z,67.90
2018-09-24T05:18:34.726Z,68.20
2018-09-24T05:21:08.513Z,68.20
2018-09-24T05:23:42.352Z,68.00
2018-09-24T05:26:16.194Z,67.40
2018-09-24T05:28:49.866Z,68.20
2018-09-24T05:31:23.610Z,68.10
2018-09-24T05:33:57.294Z,68.20
2018-09-24T05:36:30.953Z,68.10
2018-09-24T05:39:04.655Z,68.20
2018-09-24T05:41:38.369Z,68.40
2018-09-24T05:44:12.107Z,68.30
2018-09-24T05:46:45.969Z,68.30
2018-09-24T05:49:19.870Z,68.20
2018-09-24T05:51:53.611Z,68.20
2018-09-24T05:54:27.466Z,68.30
2018-09-24T05:57:01.037Z,68.30
2018-09-24T05:59:34.764Z,68.30
2018-09-24T06:02:08.574Z,68.20
2018-09-24T06:04:42.556Z,68.50
2018-09-24T06:07:16.282Z,68.70
2018-09-24T06:09:50.047Z,68.00
2018-09-24T06:12:23.874Z,68.30
2018-09-24T06:14:57.569Z,68.40
2018-09-24T06:17:31.243Z,68.00
2018-09-24T06:20:05.258Z,68.00
2018-09-24T06:22:39.002Z,68.30
2018-09-24T06:25:12.923Z,68.00
2018-09-24T06:27:46.863Z,67.80
2018-09-24T06:30:20.550Z,68.60
2018-09-24T06:32:54.559Z,67.60
2018-09-24T06:35:28.265Z,67.90
2018-09-24T06:38:02.160Z,67.80
2018-09-24T06:40:35.923Z,69.40
2018-09-24T06:43:09.862Z,67.20
2018-09-24T06:45:43.503Z,66.70
2018-09-24T06:48:17.215Z,66.50
2018-09-24T06:50:51.045Z,66.80
2018-09-24T06:53:24.725Z,67.00
2018-09-24T06:55:58.466Z,66.50
2018-09-24T06:58:32.135Z,66.50
2018-09-24T07:01:05.854Z,66.40
2018-09-24T07:03:39.642Z,65.90
2018-09-24T07:06:13.384Z,65.80
2018-09-24T07:08:47.156Z,65.90
2018-09-24T07:11:20.891Z,66.10
2018-09-24T07:13:54.605Z,66.20
2018-09-24T07:16:28.257Z,66.20
2018-09-24T07:19:01.979Z,65.90
2018-09-24T07:21:35.855Z,65.70
2018-09-24T07:24:09.633Z,65.50
2018-09-24T07:26:43.371Z,65.90
2018-09-24T07:29:17.031Z,64.70
2018-09-24T07:31:50.783Z,65.00
2018-09-24T07:34:24.656Z,65.20
2018-09-24T07:36:58.342Z,65.40
2018-09-24T07:39:32.066Z,65.20
2018-09-24T07:42:05.931Z,65.10
2018-09-24T07:44:39.757Z,64.90
2018-09-24T07:47:13.465Z,64.40
2018-09-24T07:49:47.374Z,63.60
2018-09-24T07:52:21.194Z,63.30
2018-09-24T07:54:54.968Z,62.10
2018-09-24T07:57:28.699Z,61.80
2018-09-24T08:00:02.703Z,62.80
2018-09-24T08:02:37.390Z,63.10
2018-09-24T08:05:11.280Z,62.20
2018-09-24T08:07:45.046Z,61.90
2018-09-24T08:10:18.627Z,61.50
2018-09-24T08:12:52.529Z,61.70
2018-09-24T08:15:26.311Z,61.80
2018-09-24T08:18:00.079Z,60.50
2018-09-24T08:20:33.809Z,60.80
2018-09-24T08:23:07.596Z,59.90
2018-09-24T08:25:41.326Z,59.60
2018-09-24T08:28:15.062Z,58.60
2018-09-24T08:30:48.939Z,58.90
2018-09-24T08:33:22.576Z,59.20
2018-09-24T08:35:56.306Z,59.20
2018-09-24T08:38:30.159Z,59.80
2018-09-24T08:41:03.858Z,60.30
2018-09-24T08:43:37.554Z,59.70
2018-09-24T08:46:11.408Z,59.20
2018-09-24T08:48:45.164Z,59.10
2018-09-24T08:51:18.935Z,58.40
2018-09-24T08:53:52.740Z,58.10
2018-09-24T08:56:26.619Z,58.00
2018-09-24T08:59:00.313Z,57.80
2018-09-24T09:01:34.062Z,57.10
2018-09-24T09:04:07.755Z,56.20
2018-09-24T09:06:41.982Z,55.50
2018-09-24T09:09:16.641Z,54.90
2018-09-24T09:11:50.406Z,54.40
2018-09-24T09:14:24.082Z,53.80
2018-09-24T09:16:57.753Z,53.20
2018-09-24T09:19:31.373Z,52.50
2018-09-24T09:22:05.065Z,52.40
2018-09-24T09:24:38.707Z,52.20
2018-09-24T09:27:12.537Z,51.50
2018-09-24T09:29:46.343Z,50.90
2018-09-24T09:32:20.154Z,50.60
2018-09-24T09:34:53.872Z,50.60
2018-09-24T09:37:28.675Z,50.30
2018-09-24T09:40:02.671Z,51.90
2018-09-24T09:42:36.493Z,52.00
2018-09-24T09:45:10.444Z,50.60
2018-09-24T09:47:44.100Z,49.60
2018-09-24T09:50:17.822Z,49.20
2018-09-24T09:52:51.502Z,49.00
2018-09-24T09:55:25.379Z,47.90
2018-09-24T09:57:59.143Z,47.60
2018-09-24T10:00:32.695Z,47.40
2018-09-24T10:03:06.481Z,48.90
2018-09-24T10:05:40.228Z,48.40
2018-09-24T10:08:14.161Z,48.60
2018-09-24T10:10:47.922Z,48.10
2018-09-24T10:13:21.717Z,48.10
2018-09-24T10:15:55.449Z,47.80
2018-09-24T10:18:29.282Z,47.60
2018-09-24T10:21:02.961Z,47.60
2018-09-24T10:23:36.724Z,47.00
2018-09-24T10:26:10.538Z,47.40
2018-09-24T10:28:44.254Z,46.80
2018-09-24T10:31:17.845Z,46.80
2018-09-24T10:33:51.746Z,46.70
2018-09-24T10:36:25.361Z,46.80
2018-09-24T10:38:59.074Z,47.00
2018-09-24T10:41:32.850Z,46.70
2018-09-24T10:44:06.712Z,46.20
2018-09-24T10:46:40.585Z,46.70
2018-09-24T10:49:14.334Z,46.60
2018-09-24T10:51:48.198Z,46.90
2018-09-24T10:54:21.904Z,46.40
2018-09-24T10:56:55.602Z,44.90
2018-09-24T10:59:29.331Z,44.50
2018-09-24T11:02:03.008Z,42.70
2018-09-24T11:04:36.641Z,42.80
2018-09-24T11:07:10.515Z,42.30
2018-09-24T11:09:44.347Z,41.60
2018-09-24T11:12:18.133Z,40.90
2018-09-24T11:14:51.955Z,41.20
2018-09-24T11:17:25.807Z,41.10
2018-09-24T11:19:59.507Z,39.70
2018-09-24T11:22:33.368Z,40.70
2018-09-24T11:25:07.098Z,41.20
2018-09-24T11:27:40.989Z,41.20
2018-09-24T11:30:14.729Z,41.70
2018-09-24T11:32:48.428Z,42.40
2018-09-24T11:35:22.077Z,42.60
2018-09-24T11:37:56.118Z,42.70
2018-09-24T11:40:29.841Z,42.20
2018-09-24T11:43:03.595Z,42.20
2018-09-24T11:45:37.424Z,42.10
2018-09-24T11:48:11.166Z,42.00
2018-09-24T11:50:45.150Z,41.80
2018-09-24T11:53:18.829Z,41.70
2018-09-24T11:55:52.541Z,41.20
2018-09-24T11:58:26.298Z,40.50
2018-09-24T12:01:00.051Z,41.70
2018-09-24T12:03:33.979Z,41.30
2018-09-24T12:06:07.833Z,41.30
2018-09-24T12:08:41.640Z,39.80
2018-09-24T12:11:15.409Z,39.40
2018-09-24T12:13:49.170Z,39.40
2018-09-24T12:16:23.046Z,38.90
2018-09-24T12:18:56.789Z,37.90
2018-09-24T12:21:30.597Z,38.20
2018-09-24T12:24:04.269Z,38.30
2018-09-24T12:26:38.028Z,37.80
2018-09-24T12:29:11.799Z,37.00
2018-09-24T12:31:45.758Z,35.50
2018-09-24T12:34:19.532Z,35.40
2018-09-24T12:36:53.223Z,36.30
2018-09-24T12:39:27.013Z,36.10
2018-09-24T12:42:00.772Z,36.70
2018-09-24T12:44:34.703Z,36.60
2018-09-24T12:47:08.418Z,36.30
2018-09-24T12:49:42.186Z,35.80
2018-09-24T12:52:15.911Z,35.70
2018-09-24T12:54:49.736Z,35.20
2018-09-24T12:57:23.514Z,35.20
2018-09-24T12:59:57.217Z,35.20
2018-09-24T13:02:31.004Z,34.90
2018-09-24T13:05:04.627Z,35.00
2018-09-24T13:07:38.417Z,35.20
2018-09-24T13:10:12.204Z,35.60
2018-09-24T13:12:45.810Z,35.50
2018-09-24T13:15:19.821Z,35.90
2018-09-24T13:17:53.543Z,35.60
2018-09-24T13:20:27.313Z,35.10
2018-09-24T13:23:00.958Z,35.70
2018-09-24T13:25:34.760Z,35.50
2018-09-24T13:28:08.698Z,35.90
2018-09-24T13:30:42.433Z,36.00
2018-09-24T13:33:16.342Z,36.10
2018-09-24T13:35:49.976Z,36.30
2018-09-24T13:38:23.673Z,36.90
2018-09-24T13:40:57.432Z,36.70
2018-09-24T13:43:31.117Z,36.70
2018-09-24T13:46:04.782Z,36.80
2018-09-24T13:48:38.604Z,36.60
2018-09-24T13:51:12.532Z,36.40
2018-09-24T13:53:46.286Z,36.10
2018-09-24T13:56:20.139Z,36.30
2018-09-24T13:58:53.988Z,36.00
2018-09-24T14:01:27.845Z,35.80
2018-09-24T14:04:01.531Z,34.20
2018-09-24T14:06:35.410Z,33.70
2018-09-24T14:09:10.407Z,33.50
2018-09-24T14:11:44.304Z,33.70
2018-09-24T14:14:18.235Z,32.80
2018-09-24T14:16:52.257Z,33.40
2018-09-24T14:19:26.019Z,33.90
2018-09-24T14:21:59.715Z,34.00
2018-09-24T14:24:33.510Z,32.80
2018-09-24T14:27:07.205Z,33.60
2018-09-24T14:29:41.191Z,31.80
2018-09-24T14:32:15.324Z,32.10
2018-09-24T14:34:49.168Z,32.90
2018-09-24T14:37:22.958Z,33.60
2018-09-24T14:39:56.946Z,34.00
2018-09-24T14:42:31.055Z,34.20
2018-09-24T14:45:05.260Z,34.30
2018-09-24T14:47:39.064Z,33.30
2018-09-24T14:50:12.910Z,33.50
2018-09-24T14:52:46.605Z,34.50
2018-09-24T14:55:20.377Z,34.80
2018-09-24T14:57:54.364Z,34.30
2018-09-24T15:00:28.217Z,34.70
2018-09-24T15:03:02.079Z,34.30
2018-09-24T15:05:35.689Z,33.80
2018-09-24T15:08:09.523Z,33.80
2018-09-24T15:10:43.259Z,34.70
2018-09-24T15:13:17.146Z,35.10
2018-09-24T15:15:50.946Z,35.40
2018-09-24T15:18:24.689Z,35.70
2018-09-24T15:20:58.408Z,35.50
2018-09-24T15:23:32.185Z,35.00
2018-09-24T15:26:06.009Z,35.20
2018-09-24T15:28:39.844Z,36.10
2018-09-24T15:31:13.646Z,36.20
2018-09-24T15:33:47.471Z,35.80
2018-09-24T15:36:21.186Z,35.90
2018-09-24T15:38:55.181Z,36.20
2018-09-24T15:41:28.878Z,36.10
2018-09-24T15:44:02.675Z,36.20
2018-09-24T15:46:36.485Z,36.50
2018-09-24T15:49:10.146Z,36.70
2018-09-24T15:51:43.935Z,36.80
2018-09-24T15:54:17.599Z,38.50
2018-09-24T15:56:51.342Z,37.90
2018-09-24T15:59:24.993Z,37.70
2018-09-24T16:01:58.779Z,38.00
2018-09-24T16:04:32.679Z,37.20
2018-09-24T16:07:06.586Z,37.50
2018-09-24T16:09:40.426Z,37.40
2018-09-24T16:12:14.155Z,37.80
2018-09-24T16:14:47.931Z,38.30
2018-09-24T16:17:21.768Z,38.10
2018-09-24T16:19:55.482Z,37.50
2018-09-24T16:22:29.270Z,37.40
2018-09-24T16:25:02.966Z,37.50
2018-09-24T16:27:36.729Z,37.90
2018-09-24T16:30:10.967Z,37.80
2018-09-24T16:32:44.843Z,39.00
2018-09-24T16:35:18.581Z,38.50
2018-09-24T16:37:52.288Z,38.60
2018-09-24T16:40:26.103Z,38.70
2018-09-24T16:43:00.023Z,38.90
2018-09-24T16:45:33.792Z,39.10
2018-09-24T16:48:07.594Z,38.90
2018-09-24T16:50:41.493Z,39.40
2018-09-24T16:53:15.221Z,39.60
2018-09-24T16:55:49.002Z,40.00
2018-09-24T16:58:22.811Z,40.30
2018-09-24T17:00:56.640Z,40.30
2018-09-24T17:03:30.585Z,41.00
2018-09-24T17:06:04.388Z,40.70
2018-09-24T17:08:38.274Z,41.20
2018-09-24T17:11:12.158Z,41.20
2018-09-24T17:13:45.860Z,41.30
2018-09-24T17:16:19.582Z,41.50
2018-09-24T17:18:53.471Z,42.40
2018-09-24T17:21:27.358Z,43.60
2018-09-24T17:24:01.262Z,43.70
2018-09-24T17:26:35.114Z,44.50
2018-09-24T17:29:08.853Z,44.60
2018-09-24T17:31:42.786Z,44.80
2018-09-24T17:34:16.497Z,45.10
2018-09-24T17:36:50.442Z,46.00
2018-09-24T17:39:24.117Z,46.30
2018-09-24T17:41:57.962Z,47.40
2018-09-24T17:44:31.800Z,47.10
2018-09-24T17:47:05.552Z,47.70
2018-09-24T17:49:39.357Z,47.90
2018-09-24T17:52:13.566Z,48.80
2018-09-24T17:54:47.321Z,47.90
2018-09-24T17:57:21.194Z,48.20
2018-09-24T17:59:54.855Z,48.60
2018-09-24T18:02:28.541Z,49.50
2018-09-24T18:05:02.219Z,49.90
2018-09-24T18:07:35.875Z,50.10
2018-09-24T18:10:09.668Z,50.40
2018-09-24T18:12:43.558Z,50.80
2018-09-24T18:15:17.152Z,50.80
2018-09-24T18:17:51.091Z,51.50
2018-09-24T18:20:24.880Z,51.30
2018-09-24T18:22:58.742Z,51.70
2018-09-24T18:25:32.662Z,51.60
2018-09-24T18:28:06.560Z,51.80
2018-09-24T18:30:40.395Z,51.70
2018-09-24T18:33:14.084Z,52.50
2018-09-24T18:35:48.217Z,52.50
2018-09-24T18:38:21.938Z,52.10
2018-09-24T18:40:55.717Z,52.80
2018-09-24T18:43:29.459Z,53.10
2018-09-24T18:46:03.179Z,53.10
2018-09-24T18:48:36.877Z,54.00
2018-09-24T18:51:10.834Z,53.40
2018-09-24T18:53:44.543Z,53.20
2018-09-24T18:56:18.477Z,53.80
2018-09-24T18:58:52.179Z,54.10
2018-09-24T19:01:25.944Z,54.10
2018-09-24T19:03:59.825Z,54.70
2018-09-24T19:06:33.731Z,54.50
2018-09-24T19:09:07.487Z,55.20
2018-09-24T19:11:41.476Z,55.60
2018-09-24T19:14:15.111Z,55.10
2018-09-24T19:16:48.833Z,54.70
2018-09-24T19:19:22.889Z,54.10
2018-09-24T19:21:56.775Z,54.20
2018-09-24T19:24:30.523Z,53.60
2018-09-24T19:27:04.266Z,53.60
2018-09-24T19:29:38.031Z,53.60
2018-09-24T19:32:12.113Z,53.60
2018-09-24T19:34:45.815Z,53.70
2018-09-24T19:37:19.606Z,53.70
2018-09-24T19:39:53.833Z,53.70
2018-09-24T19:42:27.623Z,53.60
2018-09-24T19:45:01.374Z,53.30
2018-09-24T19:47:35.131Z,53.30
2018-09-24T19:50:09.031Z,53.50
2018-09-24T19:52:42.942Z,53.50
2018-09-24T19:55:16.840Z,53.80
2018-09-24T19:57:51.522Z,54.10
2018-09-24T20:00:25.268Z,54.70
2018-09-24T20:02:59.154Z,55.70
2018-09-24T20:05:32.851Z,55.90
2018-09-24T20:08:06.721Z,56.40
2018-09-24T20:10:40.554Z,56.80
2018-09-24T20:13:16.111Z,56.70
2018-09-24T20:15:49.967Z,57.00
2018-09-24T20:18:23.862Z,57.20
2018-09-24T20:20:57.924Z,57.30
2018-09-24T20:23:32.745Z,57.60
2018-09-24T20:26:06.560Z,57.70
2018-09-24T20:28:40.542Z,57.60
2018-09-24T20:31:15.330Z,57.70
2018-09-24T20:33:51.030Z,58.10
2018-09-24T20:36:25.643Z,58.00
2018-09-24T20:38:59.628Z,58.10
2018-09-24T20:41:35.338Z,57.80
2018-09-24T20:44:09.295Z,58.10
2018-09-24T20:46:43.139Z,58.20
2018-09-24T20:49:19.282Z,58.10
2018-09-24T20:51:54.548Z,58.90
2018-09-24T20:54:29.275Z,58.30
2018-09-24T20:57:05.458Z,58.70
2018-09-24T20:59:45.263Z,57.80
2018-09-24T21:02:20.803Z,57.40
2018-09-24T21:05:01.368Z,57.20
2018-09-24T21:07:38.999Z,57.50
2018-09-24T21:10:16.125Z,57.90
2018-09-24T21:12:50.830Z,57.90
2018-09-24T21:15:30.190Z,58.00
2018-09-24T21:18:04.936Z,58.40
2018-09-24T21:20:40.607Z,59.00
2018-09-24T21:23:17.158Z,58.90
2018-09-24T21:25:52.504Z,58.90
2018-09-24T21:28:27.153Z,58.60
2018-09-24T21:31:01.577Z,59.50
2018-09-24T21:33:37.385Z,59.50
2018-09-24T21:36:12.141Z,59.80
2018-09-24T21:38:50.459Z,59.30
2018-09-24T21:41:27.379Z,59.00
2018-09-24T21:44:01.957Z,59.10
2018-09-24T21:46:37.924Z,59.50
2018-09-24T21:49:11.550Z,59.70
2018-09-24T21:51:47.265Z,60.00
2018-09-24T21:54:22.781Z,60.00
2018-09-24T21:56:58.481Z,60.20
2018-09-24T21:59:35.285Z,60.40
2018-09-24T22:02:12.301Z,60.50
2018-09-24T22:04:46.452Z,60.60
2018-09-24T22:07:23.343Z,60.80
2018-09-24T22:09:57.438Z,61.00
2018-09-24T22:12:31.646Z,60.90
2018-09-24T22:15:05.749Z,61.20
2018-09-24T22:17:40.003Z,60.20
2018-09-24T22:20:13.986Z,60.30
2018-09-24T22:22:47.538Z,60.50
2018-09-24T22:25:21.214Z,62.20
2018-09-24T22:27:54.951Z,61.00
2018-09-24T22:30:28.621Z,61.00
2018-09-24T22:33:02.399Z,61.70
2018-09-24T22:35:36.198Z,61.60
2018-09-24T22:38:09.895Z,62.50
2018-09-24T22:40:43.554Z,62.40
2018-09-24T22:43:17.290Z,61.80
2018-09-24T22:45:51.073Z,62.20
2018-09-24T22:48:24.919Z,62.50
2018-09-24T22:50:58.857Z,62.20
2018-09-24T22:53:32.526Z,62.70
2018-09-24T22:56:06.238Z,62.50
2018-09-24T22:58:40.037Z,62.80
2018-09-24T23:01:13.818Z,63.20
2018-09-24T23:03:47.574Z,63.50
2018-09-24T23:06:21.233Z,63.30
2018-09-24T23:08:54.931Z,63.70
2018-09-24T23:11:28.933Z,63.70
2018-09-24T23:14:02.611Z,63.90
2018-09-24T23:16:36.430Z,64.30
2018-09-24T23:19:10.135Z,64.10
2018-09-24T23:21:43.905Z,64.50
2018-09-24T23:24:17.647Z,64.70
2018-09-24T23:26:51.418Z,64.30
2018-09-24T23:29:25.161Z,64.30
2018-09-24T23:31:58.962Z,64.90
2018-09-24T23:34:32.719Z,64.50
2018-09-24T23:37:06.630Z,64.90
2018-09-24T23:39:40.330Z,64.90
2018-09-24T23:42:14.317Z,64.80
2018-09-24T23:44:48.074Z,64.90
2018-09-24T23:47:21.763Z,64.70
2018-09-24T23:49:55.394Z,64.90
2018-09-24T23:52:29.177Z,65.00
2018-09-24T23:55:02.984Z,64.90
2018-09-24T23:57:36.808Z,64.80
